Time;durP1;ratioP1;P1;durP2;ratioP2;P2;SDS_P1;SDS_P2;PMS_P1;PMS_P2;Temp;Humidity;BMP_temperature;BMP_pressure;BME280_temperature;BME280_humidity;BME280_pressure;Samples;Min_cycle;Max_cycle;Signal;HPM_P1;HPM_P2
2022/10/04 00:01:59;;;;;;;17.33;16.10;;;15.80;92.80;;;;;;4943818;28;20043;-78
2022/10/04 00:04:43;;;;;;;18.50;17.23;;;15.80;92.80;;;;;;4975075;28;20050;-78
2022/10/04 00:07:12;;;;;;;18.70;17.35;;;15.80;92.90;;;;;;4955057;28;20023;-78
2022/10/04 00:09:46;;;;;;;19.25;17.75;;;15.70;93.00;;;;;;4951832;28;20032;-78
2022/10/04 00:12:23;;;;;;;18.33;17.15;;;15.70;93.00;;;;;;4953825;28;20042;-78
2022/10/04 00:14:50;;;;;;;18.17;16.88;;;15.70;93.10;;;;;;4955821;28;20377;-79
2022/10/04 00:17:22;;;;;;;17.35;16.25;;;15.70;93.00;;;;;;4954089;28;20043;-78
2022/10/04 00:19:48;;;;;;;19.15;17.65;;;15.80;93.10;;;;;;4936449;28;20046;-79
2022/10/04 00:22:33;;;;;;;19.25;17.85;;;15.80;93.20;;;;;;4945301;28;20035;-79
2022/10/04 00:25:06;;;;;;;18.30;17.05;;;15.80;93.10;;;;;;4943408;28;20366;-78
2022/10/04 00:27:33;;;;;;;18.85;17.65;;;15.90;92.90;;;;;;4956626;28;20035;-78
2022/10/04 00:30:02;;;;;;;18.40;17.20;;;15.90;92.70;;;;;;4965829;28;20047;-79
2022/10/04 00:32:40;;;;;;;18.45;17.17;;;15.90;92.80;;;;;;4953890;28;20078;-79
2022/10/04 00:35:24;;;;;;;18.67;17.52;;;15.90;92.80;;;;;;4957869;28;20035;-78
2022/10/04 00:37:58;;;;;;;18.13;16.83;;;15.80;93.50;;;;;;4969874;28;20051;-78
2022/10/04 00:40:33;;;;;;;18.00;16.80;;;15.50;94.00;;;;;;4970673;28;20503;-79
2022/10/04 00:43:19;;;;;;;18.55;17.25;;;15.60;94.00;;;;;;4971152;28;20038;-79
2022/10/04 00:45:57;;;;;;;17.17;15.85;;;15.60;93.90;;;;;;4968349;28;20043;-79
2022/10/04 00:48:34;;;;;;;17.92;16.83;;;15.70;93.70;;;;;;4970354;28;20024;-78
2022/10/04 00:51:17;;;;;;;18.63;17.45;;;15.70;93.40;;;;;;4969631;28;20491;-79
2022/10/04 00:53:51;;;;;;;17.17;15.98;;;15.80;93.40;;;;;;4969029;28;20050;-78
2022/10/04 00:56:30;;;;;;;18.92;17.67;;;15.70;93.30;;;;;;4954992;29;20027;-79
2022/10/04 00:58:59;;;;;;;17.15;16.08;;;15.50;93.80;;;;;;4937617;28;20365;-79
2022/10/04 01:01:26;;;;;;;17.85;16.40;;;15.50;94.00;;;;;;4954216;28;20484;-78
2022/10/04 01:03:52;;;;;;;18.25;17.05;;;15.40;93.80;;;;;;4970140;28;20070;-78
2022/10/04 01:06:18;;;;;;;17.58;16.38;;;15.40;93.80;;;;;;4968028;28;20039;-78
2022/10/04 01:08:48;;;;;;;18.65;17.27;;;15.30;94.00;;;;;;4938336;28;20047;-79
2022/10/04 01:11:16;;;;;;;18.23;16.95;;;15.30;94.10;;;;;;4965814;28;20396;-78
2022/10/04 01:13:48;;;;;;;18.10;17.00;;;15.30;93.80;;;;;;4923158;29;20039;-78
2022/10/04 01:16:47;;;;;;;18.35;17.05;;;15.40;93.60;;;;;;4965979;28;20039;-79
2022/10/04 01:19:25;;;;;;;17.42;16.40;;;15.40;93.30;;;;;;4938163;28;20120;-78
2022/10/04 01:22:06;;;;;;;18.23;16.67;;;15.30;93.80;;;;;;4952142;28;20043;-79
2022/10/04 01:24:33;;;;;;;;;;;15.30;93.80;;;;;;4936351;29;20470;-78
2022/10/04 01:26:59;;;;;;;17.40;16.35;;;15.30;93.40;;;;;;4953598;29;20010;-78
2022/10/04 01:29:27;;;;;;;18.05;16.95;;;15.10;93.90;;;;;;4935608;29;20039;-78
2022/10/04 01:31:54;;;;;;;18.55;17.33;;;15.10;94.20;;;;;;4934342;28;20047;-78
2022/10/04 01:34:22;;;;;;;19.13;17.73;;;15.10;94.00;;;;;;4937206;29;20028;-78
2022/10/04 01:36:50;;;;;;;35.15;19.02;;;15.20;93.70;;;;;;4936021;29;20031;-78
2022/10/04 01:39:17;;;;;;;20.48;18.45;;;15.10;94.10;;;;;;4937214;29;20050;-78
2022/10/04 01:42:03;;;;;;;41.78;20.23;;;14.80;94.90;;;;;;4919543;29;20039;-79
2022/10/04 01:44:42;;;;;;;34.60;18.98;;;14.60;95.50;;;;;;4932098;29;20491;-79
2022/10/04 01:47:15;;;;;;;22.60;19.02;;;14.50;95.50;;;;;;4936101;28;20035;-78
2022/10/04 01:49:41;;;;;;;22.98;19.65;;;14.60;95.30;;;;;;4936346;29;20035;-79
2022/10/04 01:52:30;;;;;;;58.85;19.48;;;14.70;95.20;;;;;;4935657;29;20135;-78
2022/10/04 01:55:08;;;;;;;26.25;18.75;;;14.60;95.60;;;;;;4927117;29;20059;-79
2022/10/04 01:57:37;;;;;;;86.50;19.85;;;14.60;95.50;;;;;;4943045;28;20070;-79
2022/10/04 02:00:06;;;;;;;85.72;20.38;;;14.60;95.70;;;;;;4964411;28;20481;-80
2022/10/04 02:02:38;;;;;;;39.58;18.85;;;14.60;95.40;;;;;;4966278;28;20519;-79
2022/10/04 02:05:05;;;;;;;27.40;19.92;;;14.50;95.60;;;;;;4946922;29;20035;-78
2022/10/04 02:07:32;;;;;;;60.75;19.40;;;14.40;95.90;;;;;;4945731;28;20073;-79
2022/10/04 02:10:03;;;;;;;107.22;19.75;;;14.40;95.80;;;;;;4940892;28;20043;-79
2022/10/04 02:12:32;;;;;;;44.30;18.98;;;14.40;95.90;;;;;;4952287;28;20035;-79
2022/10/04 02:15:01;;;;;;;20.55;18.25;;;14.50;95.60;;;;;;4950348;28;20043;-79
2022/10/04 02:17:31;;;;;;;27.17;17.52;;;14.50;95.60;;;;;;4934972;28;20519;-79
2022/10/04 02:19:58;;;;;;;20.98;18.25;;;14.40;95.70;;;;;;4955267;28;20032;-79
2022/10/04 02:22:24;;;;;;;40.97;17.63;;;14.40;95.90;;;;;;4965843;28;20050;-78
2022/10/04 02:24:52;;;;;;;18.77;17.58;;;14.30;95.90;;;;;;4930363;29;20485;-79
2022/10/04 02:27:18;;;;;;;21.83;16.15;;;14.30;95.90;;;;;;4956664;28;20035;-79
2022/10/04 02:29:44;;;;;;;25.67;15.57;;;14.10;96.30;;;;;;4936807;28;20380;-79
2022/10/04 02:34:55;;;;;;;26.13;16.42;;;13.70;97.30;;;;;;4969489;28;20058;-79
2022/10/04 02:37:22;;;;;;;23.20;19.33;;;13.70;97.20;;;;;;4951657;29;20035;-79
2022/10/04 02:39:55;;;;;;;68.80;20.98;;;13.70;97.00;;;;;;4937454;28;20488;-79
2022/10/04 02:42:32;;;;;;;29.20;18.63;;;13.70;97.20;;;;;;4936653;29;20384;-79
2022/10/04 02:45:14;;;;;;;49.72;19.38;;;13.70;97.20;;;;;;4936016;29;20023;-78
2022/10/04 02:47:54;;;;;;;23.10;19.15;;;13.60;97.30;;;;;;4952017;28;20508;-80
2022/10/04 02:50:29;;;;;;;67.45;17.92;;;13.60;97.10;;;;;;4968048;28;20027;-78
2022/10/04 02:52:59;;;;;;;29.95;19.70;;;13.50;97.50;;;;;;4954210;28;20366;-78
2022/10/04 02:55:31;;;;;;;25.63;17.42;;;13.50;97.30;;;;;;4967487;28;20054;-78
2022/10/04 02:57:57;;;;;;;69.07;19.92;;;13.40;97.40;;;;;;4962647;28;20051;-78
2022/10/04 03:00:28;;;;;;;45.30;21.23;;;13.40;97.50;;;;;;4947480;28;20039;-78
2022/10/04 03:03:22;;;;;;;28.85;18.58;;;13.50;97.50;;;;;;4967714;28;20035;-79
2022/10/04 03:06:04;;;;;;;19.58;17.63;;;13.50;97.10;;;;;;4933163;28;20511;-79
2022/10/04 03:08:33;;;;;;;20.33;16.95;;;13.40;97.40;;;;;;4952388;28;20043;-79
2022/10/04 03:11:00;;;;;;;42.38;19.92;;;13.30;97.70;;;;;;4951790;28;20043;-78
2022/10/04 03:13:26;;;;;;;46.10;22.50;;;13.20;97.80;;;;;;4964412;28;20051;-78
2022/10/04 03:15:53;;;;;;;78.07;22.20;;;13.20;97.80;;;;;;4949378;28;20062;-79
2022/10/04 03:18:19;;;;;;;29.05;25.55;;;13.40;97.80;;;;;;4960025;28;20477;-79
2022/10/04 03:20:45;;;;;;;72.28;20.52;;;13.40;97.60;;;;;;4968322;28;20384;-79
2022/10/04 03:23:12;;;;;;;29.77;26.33;;;13.40;97.80;;;;;;4972531;28;20107;-80
2022/10/04 03:25:47;;;;;;;28.45;22.40;;;13.50;97.40;;;;;;4950440;28;20492;-79
2022/10/04 03:28:13;;;;;;;23.52;21.27;;;13.40;97.20;;;;;;4957245;28;20140;-81
2022/10/04 03:30:43;;;;;;;26.83;24.52;;;13.30;97.50;;;;;;4939863;28;20035;-80
2022/10/04 03:33:15;;;;;;;83.97;18.80;;;13.40;97.30;;;;;;4952433;28;20043;-80
2022/10/04 03:35:41;;;;;;;28.83;26.38;;;13.40;97.60;;;;;;4960659;28;20035;-80
2022/10/04 03:38:07;;;;;;;33.60;30.02;;;13.50;97.50;;;;;;4968336;28;20511;-80
2022/10/04 03:40:33;;;;;;;31.63;29.63;;;13.60;97.40;;;;;;4980477;28;20054;-80
2022/10/04 03:43:00;;;;;;;18.75;16.80;;;13.70;96.80;;;;;;4971665;28;20039;-80
2022/10/04 03:45:27;;;;;;;39.97;18.45;;;13.80;96.30;;;;;;4949119;28;20436;-79
2022/10/04 03:47:53;;;;;;;40.38;18.25;;;13.90;96.40;;;;;;4942562;29;20038;-79
2022/10/04 03:50:27;;;;;;;41.28;16.77;;;14.00;96.00;;;;;;4932893;29;20043;-80
2022/10/04 03:52:55;;;;;;;17.70;16.38;;;14.00;95.80;;;;;;4934677;29;20038;-80
2022/10/04 03:55:30;;;;;;;37.58;18.50;;;13.80;96.00;;;;;;4917830;29;20035;-79
2022/10/04 03:57:56;;;;;;;27.35;24.92;;;13.90;96.00;;;;;;4963117;28;20053;-84
2022/10/04 04:00:22;;;;;;;43.53;20.27;;;14.10;98.70;;;;;;4948994;28;20051;-78
2022/10/04 04:02:52;;;;;;;28.50;20.23;;;14.20;96.70;;;;;;4933047;29;20028;-79
2022/10/04 04:05:52;;;;;;;35.45;18.02;;;14.20;95.80;;;;;;4933878;29;20400;-79
2022/10/04 04:08:36;;;;;;;127.57;21.67;;;14.20;95.70;;;;;;4938243;29;20050;-78
2022/10/04 04:11:03;;;;;;;26.63;16.50;;;14.30;95.30;;;;;;4932125;29;20063;-78
2022/10/04 04:13:41;;;;;;;39.35;16.92;;;14.30;95.10;;;;;;4920021;29;20028;-79
2022/10/04 04:16:07;;;;;;;57.47;17.63;;;14.00;95.50;;;;;;4904711;29;20039;-78
2022/10/04 04:18:34;;;;;;;45.53;18.15;;;14.10;95.60;;;;;;4935233;29;20500;-78
2022/10/04 04:21:02;;;;;;;35.10;17.13;;;14.10;95.70;;;;;;4922501;28;20038;-78
2022/10/04 04:23:35;;;;;;;39.45;16.50;;;14.10;95.50;;;;;;4937355;29;20035;-78
2022/10/04 04:26:10;;;;;;;24.20;15.65;;;14.20;95.80;;;;;;4904139;29;20140;-78
2022/10/04 04:28:41;;;;;;;45.92;15.43;;;14.20;95.10;;;;;;4952913;29;20035;-78
2022/10/04 04:31:19;;;;;;;24.80;16.05;;;14.20;95.30;;;;;;4958758;28;20027;-78
2022/10/04 04:33:59;;;;;;;16.88;15.60;;;14.10;95.20;;;;;;4921915;29;20047;-79
2022/10/04 04:36:30;;;;;;;29.40;16.13;;;14.10;94.90;;;;;;4939200;29;20027;-79
2022/10/04 04:39:39;;;;;;;25.23;16.92;;;13.80;95.50;;;;;;4936003;29;20109;-79
2022/10/04 04:42:06;;;;;;;74.72;17.80;;;13.60;95.90;;;;;;4936718;28;20035;-78
2022/10/04 04:44:32;;;;;;;84.45;16.60;;;13.70;95.80;;;;;;4949499;28;20050;-78
2022/10/04 04:46:59;;;;;;;19.05;16.35;;;13.80;95.50;;;;;;4954811;28;20031;-78
2022/10/04 04:49:28;;;;;;;31.73;15.60;;;13.90;95.40;;;;;;4934735;29;20044;-78
2022/10/04 04:51:54;;;;;;;16.83;15.63;;;14.00;95.50;;;;;;4951561;28;20042;-77
2022/10/04 04:54:22;;;;;;;22.05;16.38;;;14.10;94.90;;;;;;4951730;28;20035;-78
2022/10/04 04:56:50;;;;;;;20.38;17.10;;;14.10;94.90;;;;;;4951854;28;20027;-78
2022/10/04 04:59:16;;;;;;;19.05;17.08;;;13.90;95.70;;;;;;4951331;28;20035;-78
2022/10/04 05:01:44;;;;;;;39.60;16.13;;;13.90;95.50;;;;;;4951147;28;20054;-78
2022/10/04 05:04:11;;;;;;;16.95;15.27;;;13.70;95.70;;;;;;4961168;28;20051;-78
2022/10/04 05:06:42;;;;;;;27.40;16.17;;;13.60;95.70;;;;;;4954230;28;20054;-78
2022/10/04 05:09:25;;;;;;;18.50;16.60;;;13.50;96.10;;;;;;4970763;28;20036;-78
2022/10/04 05:11:52;;;;;;;19.15;15.52;;;13.40;96.20;;;;;;4966138;28;20042;-78
2022/10/04 05:14:18;;;;;;;32.25;17.15;;;13.10;96.60;;;;;;4951102;28;20032;-78
2022/10/04 05:16:52;;;;;;;16.73;15.43;;;13.10;96.90;;;;;;4950745;28;20044;-78
2022/10/04 05:19:32;;;;;;;20.63;16.30;;;13.00;96.80;;;;;;4935599;29;20485;-78
2022/10/04 05:22:00;;;;;;;26.55;16.40;;;12.90;97.20;;;;;;4951376;28;20031;-78
2022/10/04 05:24:30;;;;;;;57.33;17.15;;;12.90;97.30;;;;;;4951565;28;20028;-78
2022/10/04 05:27:03;;;;;;;45.92;18.00;;;13.00;97.50;;;;;;4951102;28;20392;-78
2022/10/04 05:29:38;;;;;;;19.75;15.82;;;13.20;96.80;;;;;;4950059;29;20039;-77
2022/10/04 05:32:36;;;;;;;16.70;15.43;;;13.40;96.50;;;;;;4980431;28;20059;-78
2022/10/04 05:35:16;;;;;;;31.35;17.50;;;13.50;95.90;;;;;;4894629;29;20044;-78
2022/10/04 05:38:00;;;;;;;18.08;16.45;;;13.20;96.30;;;;;;4895329;29;20047;-78
2022/10/04 05:40:47;;;;;;;17.80;16.08;;;13.20;96.40;;;;;;4895079;29;20367;-78
2022/10/04 05:43:24;;;;;;;52.05;15.80;;;13.20;96.40;;;;;;4890456;29;20045;-77
2022/10/04 05:46:17;;;;;;;17.60;16.42;;;13.20;96.40;;;;;;4893160;29;20445;-78
2022/10/04 05:48:44;;;;;;;17.23;16.02;;;13.10;96.50;;;;;;4895499;29;20033;-78
2022/10/04 05:51:29;;;;;;;16.95;15.85;;;13.20;96.40;;;;;;4895930;29;20044;-78
2022/10/04 05:53:58;;;;;;;18.55;17.25;;;13.10;96.40;;;;;;4895623;29;20080;-78
2022/10/04 05:56:39;;;;;;;22.33;15.85;;;13.10;96.70;;;;;;4893942;29;20049;-79
2022/10/04 05:59:08;;;;;;;19.98;16.10;;;13.20;96.40;;;;;;4895677;29;20055;-78
2022/10/04 06:01:40;;;;;;;17.58;16.02;;;13.10;96.70;;;;;;4894076;29;20044;-78
2022/10/04 06:04:19;;;;;;;17.80;16.23;;;13.00;96.70;;;;;;4893089;29;20045;-78
2022/10/04 06:06:49;;;;;;;21.95;15.40;;;13.20;96.40;;;;;;4877209;29;20044;-78
2022/10/04 06:09:34;;;;;;;17.52;16.20;;;13.00;96.70;;;;;;4891134;29;20052;-76
2022/10/04 06:12:11;;;;;;;16.77;15.27;;;13.20;96.30;;;;;;4918252;28;20046;-77
2022/10/04 06:14:41;;;;;;;17.33;16.00;;;13.20;96.30;;;;;;4950441;29;20036;-78
2022/10/04 06:17:45;;;;;;;17.87;16.33;;;13.10;96.50;;;;;;4938405;28;20046;-77
2022/10/04 06:20:30;;;;;;;20.52;15.77;;;13.00;96.50;;;;;;4917839;29;20054;-78
2022/10/04 06:22:59;;;;;;;17.58;16.00;;;13.10;96.60;;;;;;4933683;29;20038;-77
2022/10/04 06:25:37;;;;;;;18.15;16.02;;;13.20;96.50;;;;;;4901154;29;20143;-77
2022/10/04 06:28:18;;;;;;;28.92;16.27;;;13.30;96.40;;;;;;4932054;29;20047;-78
2022/10/04 06:31:14;;;;;;;18.52;16.98;;;13.30;96.20;;;;;;4921137;28;20035;-76
2022/10/04 06:33:43;;;;;;;17.58;15.75;;;13.30;96.40;;;;;;4948433;29;20444;-77
2022/10/04 06:36:24;;;;;;;17.02;15.68;;;13.20;96.60;;;;;;4928633;29;20044;-76
2022/10/04 06:38:56;;;;;;;18.25;15.98;;;13.20;96.60;;;;;;4926616;29;20044;-77
2022/10/04 06:41:30;;;;;;;26.40;22.40;;;13.00;97.00;;;;;;4910988;29;20031;-76
2022/10/04 06:44:19;;;;;;;20.15;18.73;;;13.00;97.40;;;;;;4927471;29;20040;-79
2022/10/04 06:47:03;;;;;;;20.83;18.42;;;13.10;97.10;;;;;;4915609;28;20039;-77
2022/10/04 06:49:45;;;;;;;20.98;17.27;;;13.00;97.40;;;;;;4921205;28;20054;-76
2022/10/04 06:52:53;;;;;;;25.30;23.05;;;12.90;97.40;;;;;;4910902;29;20036;-76
2022/10/04 06:55:41;;;;;;;19.45;15.75;;;13.00;97.40;;;;;;4918815;29;20031;-76
2022/10/04 06:58:25;;;;;;;21.73;19.20;;;13.00;97.20;;;;;;4957971;28;20035;-76
2022/10/04 07:01:13;;;;;;;21.88;20.20;;;12.90;97.70;;;;;;4941982;28;20027;-76
2022/10/04 07:04:12;;;;;;;19.80;16.88;;;12.90;97.80;;;;;;4941862;29;20038;-75
2022/10/04 07:06:46;;;;;;;25.55;16.13;;;12.70;98.30;;;;;;4924510;29;20040;-76
2022/10/04 07:09:22;;;;;;;17.75;16.40;;;12.60;98.30;;;;;;4906172;29;20248;-76
2022/10/04 07:12:16;;;;;;;19.50;18.00;;;12.60;98.10;;;;;;4906711;29;20040;-76
2022/10/04 07:14:51;;;;;;;19.63;18.15;;;12.70;98.10;;;;;;4923892;29;20487;-75
2022/10/04 07:17:31;;;;;;;25.77;22.95;;;12.60;98.30;;;;;;4907240;29;20111;-77
2022/10/04 07:19:57;;;;;;;25.75;21.48;;;12.70;98.50;;;;;;4909318;29;20040;-76
2022/10/04 07:22:46;;;;;;;26.30;24.63;;;12.80;98.30;;;;;;4910057;29;20374;-77
2022/10/04 07:25:21;;;;;;;20.15;18.70;;;12.80;98.50;;;;;;4906732;29;20444;-76
2022/10/04 07:29:19;;;;;;;16.92;15.40;;;12.90;97.90;;;;;;4907380;29;20050;-77
2022/10/04 07:30:43;;;;;;;29.05;27.05;;;12.90;97.90;;;;;;4919206;28;20555;-76
2022/10/04 07:33:13;;;;;;;17.48;16.00;;;13.00;98.20;;;;;;4925908;29;20040;-79
2022/10/04 07:35:47;;;;;;;15.85;14.40;;;13.00;97.70;;;;;;4925402;29;20038;-76
2022/10/04 07:38:14;;;;;;;31.48;24.60;;;12.90;97.80;;;;;;4918280;29;20076;-78
2022/10/04 07:41:06;;;;;;;36.83;33.78;;;12.90;98.50;;;;;;4926511;29;20397;-78
2022/10/04 07:43:55;;;;;;;39.67;37.28;;;13.20;98.20;;;;;;4929305;28;20043;-79
2022/10/04 07:46:21;;;;;;;16.73;15.52;;;13.30;97.70;;;;;;4939773;28;20035;-78
2022/10/04 07:48:49;;;;;;;18.15;16.67;;;13.20;97.60;;;;;;4941380;29;20048;-76
2022/10/04 07:51:50;;;;;;;24.10;17.15;;;13.20;97.70;;;;;;4933787;29;20487;-76
2022/10/04 07:54:21;;;;;;;17.48;16.27;;;13.40;97.80;;;;;;4955823;28;20385;-76
2022/10/04 07:56:57;;;;;;;21.17;18.10;;;13.50;97.10;;;;;;4933597;29;20024;-76
2022/10/04 07:59:34;;;;;;;20.27;18.17;;;13.60;96.90;;;;;;4928475;28;20070;-76
2022/10/04 08:02:25;;;;;;;19.73;18.20;;;13.30;97.20;;;;;;4947793;28;20027;-75
2022/10/04 08:04:55;;;;;;;;;;;13.30;97.30;;;;;;4940455;29;20377;-75
2022/10/04 08:07:45;;;;;;;19.90;18.15;;;13.30;97.70;;;;;;4957125;28;19936;-76
2022/10/04 08:10:14;;;;;;;23.40;21.48;;;13.60;97.60;;;;;;4939532;28;20050;-80
2022/10/04 08:13:10;;;;;;;35.35;32.85;;;14.00;99.90;;;;;;4942361;28;20477;-80
2022/10/04 08:15:37;;;;;;;27.65;25.65;;;14.40;99.00;;;;;;4930371;28;20035;-82
2022/10/04 08:18:28;;;;;;;21.88;20.25;;;14.60;97.30;;;;;;4963360;28;20035;-82
2022/10/04 08:21:05;;;;;;;21.98;19.95;;;14.70;96.70;;;;;;4941025;28;20070;-82
2022/10/04 08:23:55;;;;;;;23.25;21.45;;;14.90;96.20;;;;;;4946512;28;20042;-83
2022/10/04 08:26:51;;;;;;;25.25;23.35;;;15.00;95.50;;;;;;4942972;28;20379;-82
2022/10/04 08:29:43;;;;;;;23.08;21.13;;;15.00;95.20;;;;;;4930325;29;20050;-82
2022/10/04 08:32:24;;;;;;;22.60;20.90;;;15.10;95.10;;;;;;4949112;28;20055;-82
2022/10/04 08:34:54;;;;;;;27.25;25.30;;;15.10;94.80;;;;;;4957976;28;20039;-82
2022/10/04 08:37:37;;;;;;;27.70;25.90;;;15.00;95.30;;;;;;4938236;28;20027;-82
2022/10/04 08:40:25;;;;;;;24.33;22.50;;;15.00;95.40;;;;;;4932301;28;20437;-82
2022/10/04 08:42:57;;;;;;;32.85;26.42;;;15.10;95.30;;;;;;4941524;29;20038;-82
2022/10/04 08:46:02;;;;;;;24.02;21.83;;;15.30;95.60;;;;;;4943141;28;20028;-82
2022/10/04 08:48:50;;;;;;;24.20;22.42;;;15.50;96.80;;;;;;4949954;28;20035;-83
2022/10/04 08:51:26;;;;;;;31.67;29.38;;;15.70;98.20;;;;;;4951919;28;20036;-82
2022/10/04 08:54:31;;;;;;;31.55;28.95;;;15.90;98.20;;;;;;4963646;28;20046;-81
2022/10/04 08:57:11;;;;;;;27.42;25.33;;;15.90;98.70;;;;;;4956189;28;20039;-84
2022/10/04 09:00:05;;;;;;;39.50;36.35;;;16.10;99.90;;;;;;4943427;28;20039;-82
2022/10/04 09:02:38;;;;;;;43.95;30.98;;;16.20;99.60;;;;;;4954266;28;20121;-82
2022/10/04 09:05:31;;;;;;;43.33;39.58;;;16.30;99.90;;;;;;4954861;29;20039;-81
2022/10/04 09:08:06;;;;;;;29.95;27.15;;;16.40;99.90;;;;;;4952353;28;20060;-82
2022/10/04 09:10:36;;;;;;;26.92;24.70;;;16.60;99.90;;;;;;4942012;28;20055;-82
2022/10/04 09:13:04;;;;;;;31.52;29.17;;;16.60;98.00;;;;;;4954089;28;20050;-82
2022/10/04 09:15:50;;;;;;;27.02;25.23;;;16.60;98.30;;;;;;4938036;28;20031;-82
2022/10/04 09:18:21;;;;;;;27.70;25.48;;;16.70;98.10;;;;;;4955785;29;20499;-82
2022/10/04 09:20:57;;;;;;;27.67;25.75;;;16.70;96.90;;;;;;4945410;29;20104;-82
2022/10/04 09:23:30;;;;;;;29.25;26.77;;;16.70;97.40;;;;;;4930720;29;20042;-84
2022/10/04 09:26:00;;;;;;;28.95;26.70;;;16.70;98.00;;;;;;4944284;28;20039;-83
2022/10/04 09:28:38;;;;;;;29.30;26.90;;;16.80;96.90;;;;;;4940815;28;20027;-82
2022/10/04 09:31:28;;;;;;;28.17;26.10;;;16.80;97.40;;;;;;4940783;28;20032;-82
2022/10/04 09:34:04;;;;;;;26.45;23.92;;;16.80;97.30;;;;;;4947934;29;20100;-82
2022/10/04 09:36:51;;;;;;;25.58;23.33;;;16.80;97.30;;;;;;4946915;29;20094;-81
2022/10/04 09:39:39;;;;;;;28.38;26.20;;;16.80;96.50;;;;;;4940060;29;20031;-82
2022/10/04 09:42:24;;;;;;;34.90;27.55;;;16.90;97.10;;;;;;4946960;28;20460;-82
2022/10/04 09:45:09;;;;;;;36.63;33.45;;;16.80;96.50;;;;;;4939806;29;20032;-82
2022/10/04 09:47:44;;;;;;;142.45;28.67;;;16.80;98.20;;;;;;4940753;28;20043;-83
2022/10/04 09:50:34;;;;;;;29.42;27.02;;;16.90;97.40;;;;;;4941531;29;20539;-83
2022/10/04 09:53:13;;;;;;;31.27;28.52;;;16.80;95.40;;;;;;4938788;29;20042;-84
2022/10/04 09:56:04;;;;;;;30.58;27.88;;;16.90;96.90;;;;;;4938160;28;20054;-85
2022/10/04 09:58:50;;;;;;;42.83;25.25;;;16.90;96.40;;;;;;4946916;29;20046;-86
2022/10/04 10:01:32;;;;;;;29.92;27.67;;;17.10;96.70;;;;;;4952087;28;20515;-84
2022/10/04 10:04:35;;;;;;;40.85;27.73;;;17.20;95.10;;;;;;4938539;28;20047;-84
2022/10/04 10:07:26;;;;;;;31.00;26.15;;;17.30;96.00;;;;;;4960744;28;20366;-83
2022/10/04 10:13:41;;;;;;;30.38;28.15;;;17.50;96.90;;;;;;4945528;28;20047;-82
2022/10/04 10:16:26;;;;;;;31.50;29.10;;;17.60;97.10;;;;;;4952577;28;20043;-85
2022/10/04 10:19:18;;;;;;;32.25;29.85;;;17.70;96.10;;;;;;4953607;29;20354;-85
2022/10/04 10:22:03;;;;;;;33.00;30.45;;;17.80;95.30;;;;;;4958539;28;20058;-84
2022/10/04 10:24:32;;;;;;;30.98;29.08;;;17.80;96.50;;;;;;4968855;28;20400;-85
2022/10/04 10:27:26;;;;;;;33.72;31.27;;;17.90;95.90;;;;;;4953969;28;20027;-86
2022/10/04 10:30:07;;;;;;;34.22;32.08;;;18.00;95.80;;;;;;4968552;28;20035;-84
2022/10/04 10:32:52;;;;;;;;;;;18.10;94.60;;;;;;4987165;28;20047;-85
2022/10/04 10:35:36;;;;;;;32.63;30.08;;;18.10;94.30;;;;;;4953904;28;19917;-85
2022/10/04 10:38:39;;;;;;;31.83;29.88;;;18.10;95.00;;;;;;4953541;28;20058;-84
2022/10/04 10:41:08;;;;;;;34.25;31.83;;;18.10;93.50;;;;;;4968688;28;20051;-84
2022/10/04 10:43:34;;;;;;;35.22;32.97;;;18.20;94.20;;;;;;4967656;28;20047;-84
2022/10/04 10:46:29;;;;;;;35.90;33.70;;;18.20;94.20;;;;;;4953261;28;20039;-86
2022/10/04 10:49:23;;;;;;;32.20;30.00;;;18.40;93.30;;;;;;4966720;28;20027;-88
2022/10/04 10:52:10;;;;;;;33.20;30.98;;;18.40;93.40;;;;;;4954183;29;20042;-87
2022/10/04 10:54:39;;;;;;;34.65;32.10;;;18.70;94.80;;;;;;4954415;28;20031;-90
2022/10/04 10:57:32;;;;;;;36.47;33.95;;;18.60;93.10;;;;;;4948972;29;20469;-87
2022/10/04 11:00:21;;;;;;;33.70;31.30;;;18.60;93.60;;;;;;4943324;29;20044;-87
2022/10/04 11:02:56;;;;;;;44.83;41.42;;;18.60;93.80;;;;;;4951194;28;20039;-88
2022/10/04 11:06:03;;;;;;;32.28;30.27;;;18.60;94.30;;;;;;4948294;28;20035;-89
2022/10/04 11:09:00;;;;;;;32.03;29.52;;;18.70;93.80;;;;;;4944616;29;20036;-89
2022/10/04 11:11:40;;;;;;;35.17;32.35;;;18.80;93.00;;;;;;4913852;29;20043;-90
2022/10/04 11:14:27;;;;;;;35.53;32.85;;;18.80;94.00;;;;;;4917675;29;20047;-84
2022/10/04 11:17:11;;;;;;;39.35;35.88;;;18.90;93.80;;;;;;4904185;29;20481;-87
2022/10/04 11:20:04;;;;;;;33.47;31.48;;;18.90;94.60;;;;;;4919454;29;20052;-84
2022/10/04 11:22:43;;;;;;;32.35;30.08;;;19.00;93.80;;;;;;4936421;29;20023;-87
2022/10/04 11:25:58;;;;;;;34.47;32.47;;;19.00;93.10;;;;;;4940951;29;20497;-95
2022/10/04 11:29:10;;;;;;;33.65;31.33;;;19.10;93.70;;;;;;4934542;29;20044;-93
2022/10/04 11:32:00;;;;;;;36.28;34.05;;;19.20;94.70;;;;;;4922400;29;20054;-89
2022/10/04 11:34:47;;;;;;;35.80;33.15;;;19.20;94.20;;;;;;4936687;29;20528;-92
2022/10/04 11:37:18;;;;;;;36.75;34.40;;;19.30;93.80;;;;;;4921745;29;20200;-92
2022/10/04 11:39:58;;;;;;;35.33;32.67;;;19.30;94.20;;;;;;4921303;29;20051;-93
2022/10/04 11:42:40;;;;;;;35.20;33.10;;;19.40;94.10;;;;;;4921584;29;20035;-93
2022/10/04 11:45:43;;;;;;;31.95;29.95;;;19.40;92.50;;;;;;4932314;28;20485;-94
2022/10/04 11:48:25;;;;;;;32.58;30.33;;;19.30;93.10;;;;;;4969579;28;20036;-88
2022/10/04 11:50:57;;;;;;;30.27;28.23;;;19.30;92.50;;;;;;4969835;28;20035;-88
2022/10/04 11:54:02;;;;;;;29.60;27.70;;;19.40;93.60;;;;;;4955587;28;20392;-88
2022/10/04 11:56:32;;;;;;;30.52;28.73;;;19.50;93.70;;;;;;4970499;28;20046;-88
2022/10/04 11:59:33;;;;;;;29.25;27.40;;;19.70;93.00;;;;;;4966745;28;20036;-88
2022/10/04 12:02:16;;;;;;;30.83;28.90;;;19.60;92.90;;;;;;4953229;28;20031;-78
2022/10/04 12:05:01;;;;;;;31.02;29.23;;;19.80;91.70;;;;;;4969489;28;20035;-78
2022/10/04 12:07:53;;;;;;;31.20;29.42;;;19.90;91.40;;;;;;4969784;28;20062;-79
2022/10/04 12:10:29;;;;;;;31.85;29.95;;;19.90;91.10;;;;;;4940702;28;20024;-77
2022/10/04 12:13:15;;;;;;;30.08;28.40;;;19.80;89.60;;;;;;4938364;29;20041;-79
2022/10/04 12:15:50;;;;;;;31.67;29.73;;;19.80;90.10;;;;;;4945547;28;20027;-77
2022/10/04 12:18:58;;;;;;;34.67;32.75;;;19.90;89.70;;;;;;4955332;28;20487;-79
2022/10/04 12:21:27;;;;;;;35.75;33.90;;;20.00;89.20;;;;;;4915221;29;20409;-76
2022/10/04 12:24:03;;;;;;;38.58;36.28;;;20.10;87.90;;;;;;4915772;29;20521;-77
2022/10/04 12:27:01;;;;;;;37.67;35.58;;;20.10;87.10;;;;;;4914542;29;20044;-76
2022/10/04 12:30:01;;;;;;;39.22;37.13;;;20.20;87.50;;;;;;4842896;29;20046;-77
2022/10/04 12:32:54;;;;;;;44.33;41.95;;;20.40;88.60;;;;;;4876459;29;20506;-79
2022/10/04 12:35:21;;;;;;;50.92;48.20;;;20.50;86.20;;;;;;4853198;29;20052;-77
2022/10/04 12:38:12;;;;;;;49.05;46.53;;;20.70;85.00;;;;;;4843423;29;20053;-79
2022/10/04 12:41:02;;;;;;;49.58;46.88;;;20.70;84.40;;;;;;4859434;29;20057;-77
2022/10/04 12:43:39;;;;;;;54.25;51.47;;;20.80;83.30;;;;;;4842898;29;20368;-78
2022/10/04 12:46:10;;;;;;;52.90;50.25;;;20.90;85.10;;;;;;4855326;29;20523;-79
2022/10/04 12:48:57;;;;;;;55.08;52.25;;;21.00;83.90;;;;;;4846854;29;20395;-79
2022/10/04 12:51:30;;;;;;;68.05;64.65;;;21.10;84.40;;;;;;4856590;29;20049;-78
2022/10/04 12:54:20;;;;;;;72.93;69.35;;;21.30;83.00;;;;;;4843358;29;20170;-77
2022/10/04 12:57:21;;;;;;;71.55;67.90;;;21.40;82.10;;;;;;4841764;29;20030;-77
2022/10/04 12:59:54;;;;;;;75.88;72.15;;;21.50;81.30;;;;;;4881011;29;20045;-77
2022/10/04 13:02:37;;;;;;;77.22;73.32;;;21.50;80.60;;;;;;4890495;29;20041;-77
2022/10/04 13:05:23;;;;;;;66.68;63.30;;;21.60;80.70;;;;;;4897922;29;20036;-77
2022/10/04 13:07:53;;;;;;;81.18;77.10;;;21.60;81.40;;;;;;4954575;28;20036;-77
2022/10/04 13:10:56;;;;;;;82.00;78.03;;;21.70;80.60;;;;;;4935272;29;20039;-77
2022/10/04 13:13:51;;;;;;;65.65;62.35;;;21.70;79.40;;;;;;4950538;28;20036;-77
2022/10/04 13:16:49;;;;;;;72.85;69.18;;;21.60;80.60;;;;;;4948197;28;20035;-77
2022/10/04 13:19:23;;;;;;;61.50;58.42;;;21.60;79.10;;;;;;4954977;29;20515;-77
2022/10/04 13:21:55;;;;;;;77.40;73.55;;;21.60;79.60;;;;;;4953004;28;20039;-77
2022/10/04 13:24:54;;;;;;;69.45;65.88;;;21.90;80.00;;;;;;4951697;28;20039;-77
2022/10/04 13:27:46;;;;;;;69.13;65.45;;;22.00;79.20;;;;;;4934396;29;20043;-77
2022/10/04 13:30:28;;;;;;;78.75;74.88;;;22.00;79.00;;;;;;4925770;28;20035;-77
2022/10/04 13:32:59;;;;;;;77.85;74.03;;;21.90;78.30;;;;;;4965672;28;20412;-79